sensor_id;sensor_type;location;lat;lon;timestamp;P1;durP1;ratioP1;P2;durP2;ratioP2
41667;SDS011;27356;50.920;5.350;2023-10-13T00:02:07;13.38;;;7.75;;
41667;SDS011;27356;50.920;5.350;2023-10-13T00:04:33;18.25;;;8.20;;
41667;SDS011;27356;50.920;5.350;2023-10-13T00:07:01;11.77;;;7.55;;
41667;SDS011;27356;50.920;5.350;2023-10-13T00:09:28;14.05;;;8.00;;
41667;SDS011;27356;50.920;5.350;2023-10-13T00:12:00;14.60;;;7.95;;
41667;SDS011;27356;50.920;5.350;2023-10-13T00:14:28;11.98;;;7.80;;
41667;SDS011;27356;50.920;5.350;2023-10-13T00:17:04;12.95;;;8.20;;
41667;SDS011;27356;50.920;5.350;2023-10-13T00:19:33;18.13;;;9.07;;
41667;SDS011;27356;50.920;5.350;2023-10-13T00:22:07;12.73;;;8.98;;
41667;SDS011;27356;50.920;5.350;2023-10-13T00:24:37;16.20;;;8.35;;
41667;SDS011;27356;50.920;5.350;2023-10-13T00:27:26;14.15;;;8.27;;
41667;SDS011;27356;50.920;5.350;2023-10-13T00:29:56;11.82;;;7.97;;
41667;SDS011;27356;50.920;5.350;2023-10-13T00:32:43;16.90;;;7.60;;
41667;SDS011;27356;50.920;5.350;2023-10-13T00:35:16;11.65;;;7.43;;
41667;SDS011;27356;50.920;5.350;2023-10-13T00:38:00;12.85;;;7.15;;
41667;SDS011;27356;50.920;5.350;2023-10-13T00:40:29;14.32;;;8.45;;
41667;SDS011;27356;50.920;5.350;2023-10-13T00:42:57;15.77;;;8.55;;
41667;SDS011;27356;50.920;5.350;2023-10-13T00:45:43;16.52;;;8.10;;
41667;SDS011;27356;50.920;5.350;2023-10-13T00:48:21;19.98;;;8.43;;
41667;SDS011;27356;50.920;5.350;2023-10-13T00:50:53;16.52;;;9.57;;
41667;SDS011;27356;50.920;5.350;2023-10-13T00:53:27;12.95;;;8.05;;
41667;SDS011;27356;50.920;5.350;2023-10-13T00:55:59;11.35;;;7.85;;
41667;SDS011;27356;50.920;5.350;2023-10-13T00:58:43;15.18;;;9.25;;
41667;SDS011;27356;50.920;5.350;2023-10-13T01:01:11;15.15;;;8.55;;
41667;SDS011;27356;50.920;5.350;2023-10-13T01:03:45;13.43;;;8.00;;
41667;SDS011;27356;50.920;5.350;2023-10-13T01:06:18;13.43;;;8.00;;
41667;SDS011;27356;50.920;5.350;2023-10-13T01:08:45;14.10;;;8.57;;
41667;SDS011;27356;50.920;5.350;2023-10-13T01:11:16;17.23;;;10.10;;
41667;SDS011;27356;50.920;5.350;2023-10-13T01:13:43;13.95;;;8.32;;
41667;SDS011;27356;50.920;5.350;2023-10-13T01:16:09;14.73;;;7.70;;
41667;SDS011;27356;50.920;5.350;2023-10-13T01:18:35;14.07;;;8.25;;
41667;SDS011;27356;50.920;5.350;2023-10-13T01:21:13;14.30;;;8.30;;
41667;SDS011;27356;50.920;5.350;2023-10-13T01:23:45;12.88;;;8.23;;
41667;SDS011;27356;50.920;5.350;2023-10-13T01:26:12;13.48;;;8.27;;
41667;SDS011;27356;50.920;5.350;2023-10-13T01:28:41;15.82;;;9.45;;
41667;SDS011;27356;50.920;5.350;2023-10-13T01:31:11;17.85;;;8.48;;
41667;SDS011;27356;50.920;5.350;2023-10-13T01:33:49;17.13;;;8.75;;
41667;SDS011;27356;50.920;5.350;2023-10-13T01:36:22;11.32;;;8.02;;
41667;SDS011;27356;50.920;5.350;2023-10-13T01:38:48;11.75;;;7.95;;
41667;SDS011;27356;50.920;5.350;2023-10-13T01:41:18;12.85;;;7.97;;
41667;SDS011;27356;50.920;5.350;2023-10-13T01:43:45;16.40;;;8.82;;
41667;SDS011;27356;50.920;5.350;2023-10-13T01:46:11;15.77;;;8.98;;
41667;SDS011;27356;50.920;5.350;2023-10-13T01:48:38;17.60;;;9.73;;
41667;SDS011;27356;50.920;5.350;2023-10-13T01:51:05;17.55;;;9.15;;
41667;SDS011;27356;50.920;5.350;2023-10-13T01:53:34;18.33;;;9.73;;
41667;SDS011;27356;50.920;5.350;2023-10-13T01:56:01;19.02;;;9.80;;
41667;SDS011;27356;50.920;5.350;2023-10-13T01:58:35;20.52;;;9.23;;
41667;SDS011;27356;50.920;5.350;2023-10-13T02:01:01;15.20;;;8.70;;
41667;SDS011;27356;50.920;5.350;2023-10-13T02:03:32;19.42;;;9.18;;
41667;SDS011;27356;50.920;5.350;2023-10-13T02:05:58;15.73;;;8.43;;
41667;SDS011;27356;50.920;5.350;2023-10-13T02:08:29;24.58;;;9.07;;
41667;SDS011;27356;50.920;5.350;2023-10-13T02:10:56;14.82;;;7.93;;
41667;SDS011;27356;50.920;5.350;2023-10-13T02:13:23;15.73;;;8.68;;
41667;SDS011;27356;50.920;5.350;2023-10-13T02:15:57;14.40;;;8.13;;
41667;SDS011;27356;50.920;5.350;2023-10-13T02:18:27;15.43;;;7.72;;
41667;SDS011;27356;50.920;5.350;2023-10-13T02:20:56;16.45;;;9.15;;
41667;SDS011;27356;50.920;5.350;2023-10-13T02:23:29;18.67;;;8.95;;
41667;SDS011;27356;50.920;5.350;2023-10-13T02:25:56;12.13;;;8.63;;
41667;SDS011;27356;50.920;5.350;2023-10-13T02:28:39;16.15;;;8.38;;
41667;SDS011;27356;50.920;5.350;2023-10-13T02:31:05;18.02;;;8.82;;
41667;SDS011;27356;50.920;5.350;2023-10-13T02:33:31;20.02;;;9.35;;
41667;SDS011;27356;50.920;5.350;2023-10-13T02:36:02;14.95;;;8.82;;
41667;SDS011;27356;50.920;5.350;2023-10-13T02:38:30;17.75;;;9.10;;
41667;SDS011;27356;50.920;5.350;2023-10-13T02:41:02;16.88;;;9.00;;
41667;SDS011;27356;50.920;5.350;2023-10-13T02:43:31;15.18;;;10.30;;
41667;SDS011;27356;50.920;5.350;2023-10-13T02:46:01;17.60;;;8.88;;
41667;SDS011;27356;50.920;5.350;2023-10-13T02:48:27;13.57;;;8.35;;
41667;SDS011;27356;50.920;5.350;2023-10-13T02:50:59;14.50;;;8.38;;
41667;SDS011;27356;50.920;5.350;2023-10-13T02:53:30;17.90;;;7.72;;
41667;SDS011;27356;50.920;5.350;2023-10-13T02:55:56;12.80;;;8.88;;
41667;SDS011;27356;50.920;5.350;2023-10-13T02:58:29;13.23;;;7.38;;
41667;SDS011;27356;50.920;5.350;2023-10-13T03:01:04;16.73;;;8.27;;
41667;SDS011;27356;50.920;5.350;2023-10-13T03:03:35;14.20;;;7.50;;
41667;SDS011;27356;50.920;5.350;2023-10-13T03:06:00;15.27;;;7.45;;
41667;SDS011;27356;50.920;5.350;2023-10-13T03:08:26;13.25;;;6.75;;
41667;SDS011;27356;50.920;5.350;2023-10-13T03:10:52;14.93;;;7.85;;
41667;SDS011;27356;50.920;5.350;2023-10-13T03:13:19;15.18;;;7.50;;
41667;SDS011;27356;50.920;5.350;2023-10-13T03:15:45;11.23;;;6.75;;
41667;SDS011;27356;50.920;5.350;2023-10-13T03:18:12;16.00;;;6.93;;
41667;SDS011;27356;50.920;5.350;2023-10-13T03:20:43;12.43;;;7.00;;
41667;SDS011;27356;50.920;5.350;2023-10-13T03:23:09;11.65;;;6.40;;
41667;SDS011;27356;50.920;5.350;2023-10-13T03:25:34;13.60;;;6.95;;
41667;SDS011;27356;50.920;5.350;2023-10-13T03:28:07;10.55;;;6.70;;
41667;SDS011;27356;50.920;5.350;2023-10-13T03:30:42;15.48;;;7.30;;
41667;SDS011;27356;50.920;5.350;2023-10-13T03:33:08;12.90;;;6.45;;
41667;SDS011;27356;50.920;5.350;2023-10-13T03:35:39;18.33;;;6.72;;
41667;SDS011;27356;50.920;5.350;2023-10-13T03:38:08;13.25;;;7.80;;
41667;SDS011;27356;50.920;5.350;2023-10-13T03:40:46;11.30;;;5.93;;
41667;SDS011;27356;50.920;5.350;2023-10-13T03:43:33;8.32;;;5.78;;
41667;SDS011;27356;50.920;5.350;2023-10-13T03:46:10;11.55;;;6.00;;
41667;SDS011;27356;50.920;5.350;2023-10-13T03:48:35;12.82;;;6.35;;
41667;SDS011;27356;50.920;5.350;2023-10-13T03:51:17;12.02;;;5.78;;
41667;SDS011;27356;50.920;5.350;2023-10-13T03:53:43;14.10;;;6.30;;
41667;SDS011;27356;50.920;5.350;2023-10-13T03:56:18;9.25;;;5.50;;
41667;SDS011;27356;50.920;5.350;2023-10-13T03:59:04;15.05;;;6.35;;
41667;SDS011;27356;50.920;5.350;2023-10-13T04:01:42;11.60;;;6.03;;
41667;SDS011;27356;50.920;5.350;2023-10-13T04:04:12;22.30;;;6.35;;
41667;SDS011;27356;50.920;5.350;2023-10-13T04:06:59;12.60;;;6.13;;
41667;SDS011;27356;50.920;5.350;2023-10-13T04:09:32;9.85;;;5.00;;
41667;SDS011;27356;50.920;5.350;2023-10-13T04:12:07;10.32;;;5.28;;
41667;SDS011;27356;50.920;5.350;2023-10-13T04:15:02;14.90;;;6.22;;
41667;SDS011;27356;50.920;5.350;2023-10-13T04:17:31;9.15;;;4.95;;
41667;SDS011;27356;50.920;5.350;2023-10-13T04:20:05;19.25;;;5.88;;
41667;SDS011;27356;50.920;5.350;2023-10-13T04:22:32;7.68;;;5.30;;
41667;SDS011;27356;50.920;5.350;2023-10-13T04:25:13;14.98;;;5.85;;
41667;SDS011;27356;50.920;5.350;2023-10-13T04:28:05;10.15;;;4.60;;
41667;SDS011;27356;50.920;5.350;2023-10-13T04:30:41;17.15;;;5.90;;
41667;SDS011;27356;50.920;5.350;2023-10-13T04:33:22;9.60;;;4.53;;
41667;SDS011;27356;50.920;5.350;2023-10-13T04:36:15;11.23;;;4.72;;
41667;SDS011;27356;50.920;5.350;2023-10-13T04:38:45;12.95;;;5.35;;
41667;SDS011;27356;50.920;5.350;2023-10-13T04:41:30;14.15;;;4.93;;
41667;SDS011;27356;50.920;5.350;2023-10-13T04:44:16;9.18;;;4.63;;
41667;SDS011;27356;50.920;5.350;2023-10-13T04:47:05;6.85;;;3.97;;
41667;SDS011;27356;50.920;5.350;2023-10-13T04:49:39;8.77;;;4.22;;
41667;SDS011;27356;50.920;5.350;2023-10-13T04:52:11;11.43;;;5.13;;
41667;SDS011;27356;50.920;5.350;2023-10-13T04:54:39;14.98;;;4.25;;
41667;SDS011;27356;50.920;5.350;2023-10-13T04:57:23;12.23;;;5.80;;
41667;SDS011;27356;50.920;5.350;2023-10-13T05:00:08;15.77;;;4.68;;
41667;SDS011;27356;50.920;5.350;2023-10-13T05:02:37;11.15;;;4.57;;
41667;SDS011;27356;50.920;5.350;2023-10-13T05:05:13;9.60;;;3.80;;
41667;SDS011;27356;50.920;5.350;2023-10-13T05:07:40;16.52;;;4.63;;
41667;SDS011;27356;50.920;5.350;2023-10-13T05:10:25;10.75;;;4.85;;
41667;SDS011;27356;50.920;5.350;2023-10-13T05:13:09;12.38;;;5.00;;
41667;SDS011;27356;50.920;5.350;2023-10-13T05:15:53;10.80;;;4.75;;
41667;SDS011;27356;50.920;5.350;2023-10-13T05:18:38;14.07;;;5.25;;
41667;SDS011;27356;50.920;5.350;2023-10-13T05:21:22;13.88;;;5.88;;
41667;SDS011;27356;50.920;5.350;2023-10-13T05:24:06;13.52;;;4.80;;
41667;SDS011;27356;50.920;5.350;2023-10-13T05:26:51;12.98;;;4.10;;
41667;SDS011;27356;50.920;5.350;2023-10-13T05:29:40;17.08;;;4.28;;
41667;SDS011;27356;50.920;5.350;2023-10-13T05:32:24;13.02;;;4.20;;
41667;SDS011;27356;50.920;5.350;2023-10-13T05:35:09;17.02;;;4.70;;
41667;SDS011;27356;50.920;5.350;2023-10-13T05:37:53;8.35;;;4.32;;
41667;SDS011;27356;50.920;5.350;2023-10-13T05:40:37;13.48;;;4.22;;
41667;SDS011;27356;50.920;5.350;2023-10-13T05:43:22;10.73;;;3.63;;
41667;SDS011;27356;50.920;5.350;2023-10-13T05:46:06;7.78;;;3.65;;
41667;SDS011;27356;50.920;5.350;2023-10-13T05:48:50;11.07;;;4.07;;
41667;SDS011;27356;50.920;5.350;2023-10-13T05:51:25;10.15;;;3.85;;
41667;SDS011;27356;50.920;5.350;2023-10-13T05:53:58;17.25;;;4.47;;
41667;SDS011;27356;50.920;5.350;2023-10-13T05:56:43;10.65;;;3.65;;
41667;SDS011;27356;50.920;5.350;2023-10-13T05:59:29;12.50;;;4.15;;
41667;SDS011;27356;50.920;5.350;2023-10-13T06:02:20;11.65;;;4.75;;
41667;SDS011;27356;50.920;5.350;2023-10-13T06:05:14;15.33;;;4.30;;
41667;SDS011;27356;50.920;5.350;2023-10-13T06:07:58;21.92;;;4.35;;
41667;SDS011;27356;50.920;5.350;2023-10-13T06:10:43;10.65;;;4.47;;
41667;SDS011;27356;50.920;5.350;2023-10-13T06:13:27;18.42;;;5.25;;
41667;SDS011;27356;50.920;5.350;2023-10-13T06:16:13;10.80;;;3.97;;
41667;SDS011;27356;50.920;5.350;2023-10-13T06:18:58;13.35;;;3.92;;
41667;SDS011;27356;50.920;5.350;2023-10-13T06:21:43;14.38;;;4.28;;
41667;SDS011;27356;50.920;5.350;2023-10-13T06:24:28;15.20;;;4.18;;
41667;SDS011;27356;50.920;5.350;2023-10-13T06:27:13;8.13;;;3.88;;
41667;SDS011;27356;50.920;5.350;2023-10-13T06:29:58;9.45;;;4.10;;
41667;SDS011;27356;50.920;5.350;2023-10-13T06:32:25;13.50;;;4.07;;
41667;SDS011;27356;50.920;5.350;2023-10-13T06:34:52;12.20;;;3.92;;
41667;SDS011;27356;50.920;5.350;2023-10-13T06:37:22;17.38;;;4.68;;
41667;SDS011;27356;50.920;5.350;2023-10-13T06:40:02;12.18;;;4.13;;
41667;SDS011;27356;50.920;5.350;2023-10-13T06:45:38;10.68;;;4.07;;
41667;SDS011;27356;50.920;5.350;2023-10-13T06:48:05;13.20;;;3.88;;
41667;SDS011;27356;50.920;5.350;2023-10-13T06:50:31;13.40;;;4.68;;
41667;SDS011;27356;50.920;5.350;2023-10-13T06:53:04;13.27;;;3.83;;
41667;SDS011;27356;50.920;5.350;2023-10-13T06:55:30;12.02;;;3.83;;
41667;SDS011;27356;50.920;5.350;2023-10-13T06:58:03;13.68;;;4.22;;
41667;SDS011;27356;50.920;5.350;2023-10-13T07:00:31;13.90;;;4.18;;
41667;SDS011;27356;50.920;5.350;2023-10-13T07:03:03;10.00;;;3.80;;
41667;SDS011;27356;50.920;5.350;2023-10-13T07:05:43;11.27;;;3.95;;
41667;SDS011;27356;50.920;5.350;2023-10-13T07:08:10;12.77;;;4.20;;
41667;SDS011;27356;50.920;5.350;2023-10-13T07:10:52;10.43;;;3.10;;
41667;SDS011;27356;50.920;5.350;2023-10-13T07:13:38;12.38;;;3.80;;
41667;SDS011;27356;50.920;5.350;2023-10-13T07:16:07;13.05;;;3.70;;
41667;SDS011;27356;50.920;5.350;2023-10-13T07:18:37;9.57;;;3.35;;
41667;SDS011;27356;50.920;5.350;2023-10-13T07:21:09;14.73;;;3.10;;
41667;SDS011;27356;50.920;5.350;2023-10-13T07:23:36;8.93;;;3.10;;
41667;SDS011;27356;50.920;5.350;2023-10-13T07:26:02;12.77;;;3.05;;
41667;SDS011;27356;50.920;5.350;2023-10-13T07:28:30;13.90;;;3.28;;
41667;SDS011;27356;50.920;5.350;2023-10-13T07:30:56;12.68;;;2.97;;
41667;SDS011;27356;50.920;5.350;2023-10-13T07:33:22;12.23;;;3.20;;
41667;SDS011;27356;50.920;5.350;2023-10-13T07:35:58;12.35;;;3.22;;
41667;SDS011;27356;50.920;5.350;2023-10-13T07:38:36;16.10;;;3.58;;
41667;SDS011;27356;50.920;5.350;2023-10-13T07:41:03;9.90;;;3.08;;
41667;SDS011;27356;50.920;5.350;2023-10-13T07:43:35;7.13;;;2.90;;
41667;SDS011;27356;50.920;5.350;2023-10-13T07:46:04;12.10;;;3.15;;
41667;SDS011;27356;50.920;5.350;2023-10-13T07:48:37;6.85;;;3.25;;
41667;SDS011;27356;50.920;5.350;2023-10-13T07:51:06;9.05;;;2.95;;
41667;SDS011;27356;50.920;5.350;2023-10-13T07:53:39;6.82;;;3.05;;
41667;SDS011;27356;50.920;5.350;2023-10-13T07:58:37;10.57;;;3.03;;
41667;SDS011;27356;50.920;5.350;2023-10-13T08:01:23;12.43;;;3.20;;
41667;SDS011;27356;50.920;5.350;2023-10-13T08:03:50;6.78;;;3.53;;
41667;SDS011;27356;50.920;5.350;2023-10-13T08:06:29;8.32;;;3.03;;
41667;SDS011;27356;50.920;5.350;2023-10-13T08:08:55;7.97;;;3.10;;
41667;SDS011;27356;50.920;5.350;2023-10-13T08:11:32;10.05;;;3.90;;
41667;SDS011;27356;50.920;5.350;2023-10-13T08:14:05;11.25;;;3.45;;
41667;SDS011;27356;50.920;5.350;2023-10-13T08:16:47;12.50;;;3.33;;
41667;SDS011;27356;50.920;5.350;2023-10-13T08:19:26;7.70;;;3.33;;
41667;SDS011;27356;50.920;5.350;2023-10-13T08:21:57;9.43;;;3.03;;
41667;SDS011;27356;50.920;5.350;2023-10-13T08:24:24;10.55;;;3.30;;
41667;SDS011;27356;50.920;5.350;2023-10-13T08:27:19;9.48;;;3.17;;
41667;SDS011;27356;50.920;5.350;2023-10-13T08:29:59;9.15;;;3.38;;
41667;SDS011;27356;50.920;5.350;2023-10-13T08:32:28;15.68;;;3.90;;
41667;SDS011;27356;50.920;5.350;2023-10-13T08:34:55;10.73;;;3.33;;
41667;SDS011;27356;50.920;5.350;2023-10-13T08:37:24;8.40;;;3.90;;
41667;SDS011;27356;50.920;5.350;2023-10-13T08:39:55;14.82;;;3.30;;
41667;SDS011;27356;50.920;5.350;2023-10-13T08:42:29;10.65;;;3.08;;
41667;SDS011;27356;50.920;5.350;2023-10-13T08:45:09;10.98;;;3.92;;
41667;SDS011;27356;50.920;5.350;2023-10-13T08:47:58;19.77;;;3.63;;
41667;SDS011;27356;50.920;5.350;2023-10-13T08:53:32;7.82;;;3.28;;
41667;SDS011;27356;50.920;5.350;2023-10-13T08:56:04;12.75;;;3.85;;
41667;SDS011;27356;50.920;5.350;2023-10-13T08:58:49;14.35;;;4.05;;
41667;SDS011;27356;50.920;5.350;2023-10-13T09:01:22;9.30;;;3.40;;
41667;SDS011;27356;50.920;5.350;2023-10-13T09:04:14;12.82;;;4.20;;
41667;SDS011;27356;50.920;5.350;2023-10-13T09:12:12;9.50;;;3.97;;
41667;SDS011;27356;50.920;5.350;2023-10-13T09:14:58;10.70;;;4.28;;
41667;SDS011;27356;50.920;5.350;2023-10-13T09:17:48;12.35;;;4.10;;
41667;SDS011;27356;50.920;5.350;2023-10-13T09:20:29;11.63;;;4.18;;
41667;SDS011;27356;50.920;5.350;2023-10-13T09:23:18;8.65;;;4.03;;
41667;SDS011;27356;50.920;5.350;2023-10-13T09:25:50;11.32;;;3.70;;
41667;SDS011;27356;50.920;5.350;2023-10-13T09:28:22;13.75;;;4.70;;
41667;SDS011;27356;50.920;5.350;2023-10-13T09:30:51;15.88;;;4.22;;
41667;SDS011;27356;50.920;5.350;2023-10-13T09:33:22;15.30;;;4.60;;
41667;SDS011;27356;50.920;5.350;2023-10-13T09:36:01;10.35;;;3.72;;
41667;SDS011;27356;50.920;5.350;2023-10-13T09:38:38;7.32;;;4.15;;
41667;SDS011;27356;50.920;5.350;2023-10-13T09:41:07;12.43;;;3.95;;
41667;SDS011;27356;50.920;5.350;2023-10-13T09:43:46;9.10;;;4.82;;
41667;SDS011;27356;50.920;5.350;2023-10-13T09:46:15;9.40;;;4.32;;
41667;SDS011;27356;50.920;5.350;2023-10-13T09:48:48;14.15;;;5.07;;
41667;SDS011;27356;50.920;5.350;2023-10-13T09:51:29;11.80;;;4.13;;
41667;SDS011;27356;50.920;5.350;2023-10-13T09:54:04;9.75;;;4.30;;
41667;SDS011;27356;50.920;5.350;2023-10-13T09:56:40;9.25;;;4.65;;
41667;SDS011;27356;50.920;5.350;2023-10-13T10:00:06;9.35;;;4.68;;
41667;SDS011;27356;50.920;5.350;2023-10-13T10:02:17;10.07;;;4.13;;
41667;SDS011;27356;50.920;5.350;2023-10-13T10:04:56;13.40;;;4.22;;
41667;SDS011;27356;50.920;5.350;2023-10-13T10:07:37;8.43;;;4.70;;
41667;SDS011;27356;50.920;5.350;2023-10-13T10:10:05;14.30;;;4.07;;
41667;SDS011;27356;50.920;5.350;2023-10-13T10:15:29;9.65;;;3.90;;
41667;SDS011;27356;50.920;5.350;2023-10-13T10:17:59;6.47;;;4.20;;
41667;SDS011;27356;50.920;5.350;2023-10-13T10:20:36;10.35;;;4.93;;
41667;SDS011;27356;50.920;5.350;2023-10-13T10:23:06;11.87;;;3.70;;
41667;SDS011;27356;50.920;5.350;2023-10-13T10:26:13;9.60;;;3.90;;
41667;SDS011;27356;50.920;5.350;2023-10-13T10:28:44;12.63;;;5.00;;
41667;SDS011;27356;50.920;5.350;2023-10-13T10:31:11;9.98;;;3.83;;
41667;SDS011;27356;50.920;5.350;2023-10-13T10:33:38;9.75;;;3.83;;
41667;SDS011;27356;50.920;5.350;2023-10-13T10:36:04;9.57;;;3.85;;
41667;SDS011;27356;50.920;5.350;2023-10-13T10:38:30;11.80;;;4.22;;
41667;SDS011;27356;50.920;5.350;2023-10-13T10:41:04;11.70;;;4.07;;
41667;SDS011;27356;50.920;5.350;2023-10-13T10:46:18;17.60;;;4.40;;
41667;SDS011;27356;50.920;5.350;2023-10-13T10:48:53;10.68;;;3.50;;
41667;SDS011;27356;50.920;5.350;2023-10-13T10:51:26;11.93;;;3.75;;
41667;SDS011;27356;50.920;5.350;2023-10-13T10:53:56;11.27;;;4.38;;
41667;SDS011;27356;50.920;5.350;2023-10-13T10:56:24;9.93;;;3.95;;
41667;SDS011;27356;50.920;5.350;2023-10-13T10:58:59;17.40;;;4.43;;
41667;SDS011;27356;50.920;5.350;2023-10-13T11:01:26;14.18;;;4.30;;
41667;SDS011;27356;50.920;5.350;2023-10-13T11:03:59;14.27;;;3.85;;
41667;SDS011;27356;50.920;5.350;2023-10-13T11:09:26;17.50;;;4.15;;
41667;SDS011;27356;50.920;5.350;2023-10-13T11:14:43;11.68;;;3.60;;
41667;SDS011;27356;50.920;5.350;2023-10-13T11:23:23;13.48;;;3.47;;
41667;SDS011;27356;50.920;5.350;2023-10-13T11:25:58;10.43;;;4.03;;
41667;SDS011;27356;50.920;5.350;2023-10-13T11:28:24;11.73;;;3.80;;
41667;SDS011;27356;50.920;5.350;2023-10-13T11:30:53;13.30;;;4.63;;
41667;SDS011;27356;50.920;5.350;2023-10-13T11:33:35;17.33;;;4.82;;
41667;SDS011;27356;50.920;5.350;2023-10-13T11:36:01;13.88;;;3.97;;
41667;SDS011;27356;50.920;5.350;2023-10-13T11:41:07;12.38;;;3.55;;
41667;SDS011;27356;50.920;5.350;2023-10-13T11:43:41;12.40;;;3.08;;
41667;SDS011;27356;50.920;5.350;2023-10-13T11:46:12;7.93;;;3.45;;
41667;SDS011;27356;50.920;5.350;2023-10-13T11:48:40;12.73;;;3.20;;
41667;SDS011;27356;50.920;5.350;2023-10-13T11:51:07;14.77;;;4.13;;
41667;SDS011;27356;50.920;5.350;2023-10-13T11:56:17;11.73;;;3.78;;
41667;SDS011;27356;50.920;5.350;2023-10-13T11:58:46;10.65;;;3.97;;
41667;SDS011;27356;50.920;5.350;2023-10-13T12:01:12;13.02;;;3.92;;
41667;SDS011;27356;50.920;5.350;2023-10-13T12:03:42;16.95;;;4.25;;
41667;SDS011;27356;50.920;5.350;2023-10-13T12:06:26;18.08;;;4.07;;
41667;SDS011;27356;50.920;5.350;2023-10-13T12:09:06;18.13;;;3.83;;
41667;SDS011;27356;50.920;5.350;2023-10-13T12:11:44;13.23;;;3.47;;
41667;SDS011;27356;50.920;5.350;2023-10-13T12:14:19;13.75;;;3.72;;
41667;SDS011;27356;50.920;5.350;2023-10-13T12:16:47;15.18;;;4.22;;
41667;SDS011;27356;50.920;5.350;2023-10-13T12:19:20;16.33;;;3.85;;
41667;SDS011;27356;50.920;5.350;2023-10-13T12:21:51;9.73;;;4.00;;
41667;SDS011;27356;50.920;5.350;2023-10-13T12:24:24;16.15;;;4.03;;
41667;SDS011;27356;50.920;5.350;2023-10-13T12:27:08;18.27;;;4.82;;
41667;SDS011;27356;50.920;5.350;2023-10-13T12:29:59;8.68;;;3.53;;
41667;SDS011;27356;50.920;5.350;2023-10-13T12:32:32;11.27;;;4.35;;
41667;SDS011;27356;50.920;5.350;2023-10-13T12:34:59;11.07;;;3.60;;
41667;SDS011;27356;50.920;5.350;2023-10-13T12:37:45;15.40;;;4.80;;
41667;SDS011;27356;50.920;5.350;2023-10-13T12:40:17;19.60;;;3.88;;
41667;SDS011;27356;50.920;5.350;2023-10-13T12:43:03;11.60;;;3.65;;
41667;SDS011;27356;50.920;5.350;2023-10-13T12:45:48;11.50;;;3.97;;
41667;SDS011;27356;50.920;5.350;2023-10-13T12:48:34;12.52;;;3.35;;
41667;SDS011;27356;50.920;5.350;2023-10-13T12:51:21;9.60;;;4.28;;
41667;SDS011;27356;50.920;5.350;2023-10-13T12:56:13;16.50;;;3.92;;
41667;SDS011;27356;50.920;5.350;2023-10-13T12:58:40;15.30;;;3.45;;
41667;SDS011;27356;50.920;5.350;2023-10-13T13:01:06;12.65;;;3.80;;
41667;SDS011;27356;50.920;5.350;2023-10-13T13:03:32;13.20;;;4.10;;
41667;SDS011;27356;50.920;5.350;2023-10-13T13:05:58;11.10;;;3.25;;
41667;SDS011;27356;50.920;5.350;2023-10-13T13:08:28;8.98;;;3.20;;
41667;SDS011;27356;50.920;5.350;2023-10-13T13:11:00;8.40;;;4.70;;
41667;SDS011;27356;50.920;5.350;2023-10-13T13:13:26;11.38;;;3.70;;
41667;SDS011;27356;50.920;5.350;2023-10-13T13:15:52;12.20;;;3.95;;
41667;SDS011;27356;50.920;5.350;2023-10-13T13:18:18;8.20;;;3.55;;
41667;SDS011;27356;50.920;5.350;2023-10-13T13:20:44;11.43;;;3.17;;
41667;SDS011;27356;50.920;5.350;2023-10-13T13:23:20;10.32;;;3.60;;
41667;SDS011;27356;50.920;5.350;2023-10-13T13:25:47;8.75;;;3.65;;
41667;SDS011;27356;50.920;5.350;2023-10-13T13:28:13;15.20;;;3.78;;
41667;SDS011;27356;50.920;5.350;2023-10-13T13:30:43;6.68;;;3.13;;
41667;SDS011;27356;50.920;5.350;2023-10-13T13:33:09;8.93;;;4.15;;
41667;SDS011;27356;50.920;5.350;2023-10-13T13:35:39;11.18;;;3.30;;
41667;SDS011;27356;50.920;5.350;2023-10-13T13:38:07;12.43;;;3.58;;
41667;SDS011;27356;50.920;5.350;2023-10-13T13:40:54;10.10;;;3.70;;
41667;SDS011;27356;50.920;5.350;2023-10-13T13:43:20;15.48;;;4.35;;
41667;SDS011;27356;50.920;5.350;2023-10-13T13:46:06;8.45;;;3.30;;
41667;SDS011;27356;50.920;5.350;2023-10-13T13:48:38;11.18;;;3.80;;
41667;SDS011;27356;50.920;5.350;2023-10-13T13:51:06;10.95;;;3.45;;
41667;SDS011;27356;50.920;5.350;2023-10-13T13:53:44;11.40;;;3.25;;
41667;SDS011;27356;50.920;5.350;2023-10-13T13:56:14;13.77;;;3.28;;
41667;SDS011;27356;50.920;5.350;2023-10-13T13:58:49;7.88;;;3.83;;
41667;SDS011;27356;50.920;5.350;2023-10-13T14:01:15;7.30;;;3.60;;
41667;SDS011;27356;50.920;5.350;2023-10-13T14:03:49;7.90;;;3.60;;
41667;SDS011;27356;50.920;5.350;2023-10-13T14:06:16;9.45;;;3.22;;
41667;SDS011;27356;50.920;5.350;2023-10-13T14:08:45;8.68;;;3.65;;
41667;SDS011;27356;50.920;5.350;2023-10-13T14:11:13;8.15;;;3.28;;
41667;SDS011;27356;50.920;5.350;2023-10-13T14:14:00;13.18;;;3.08;;
41667;SDS011;27356;50.920;5.350;2023-10-13T14:16:29;15.38;;;4.63;;
41667;SDS011;27356;50.920;5.350;2023-10-13T14:18:58;11.10;;;3.60;;
41667;SDS011;27356;50.920;5.350;2023-10-13T14:21:26;13.95;;;4.15;;
41667;SDS011;27356;50.920;5.350;2023-10-13T14:23:53;15.68;;;4.38;;
41667;SDS011;27356;50.920;5.350;2023-10-13T14:26:19;8.27;;;3.63;;
41667;SDS011;27356;50.920;5.350;2023-10-13T14:28:50;20.58;;;3.95;;
41667;SDS011;27356;50.920;5.350;2023-10-13T14:31:34;10.85;;;3.67;;
41667;SDS011;27356;50.920;5.350;2023-10-13T14:34:04;9.90;;;3.58;;
41667;SDS011;27356;50.920;5.350;2023-10-13T14:36:31;7.10;;;3.58;;
41667;SDS011;27356;50.920;5.350;2023-10-13T14:39:01;9.25;;;3.83;;
41667;SDS011;27356;50.920;5.350;2023-10-13T14:41:27;10.63;;;3.78;;
41667;SDS011;27356;50.920;5.350;2023-10-13T14:43:54;8.20;;;4.15;;
41667;SDS011;27356;50.920;5.350;2023-10-13T14:46:29;8.68;;;3.60;;
41667;SDS011;27356;50.920;5.350;2023-10-13T14:48:55;11.48;;;3.33;;
41667;SDS011;27356;50.920;5.350;2023-10-13T14:51:21;5.88;;;3.00;;
41667;SDS011;27356;50.920;5.350;2023-10-13T14:53:47;7.35;;;2.95;;
41667;SDS011;27356;50.920;5.350;2023-10-13T14:56:14;10.00;;;3.60;;
41667;SDS011;27356;50.920;5.350;2023-10-13T14:58:41;5.95;;;3.20;;
41667;SDS011;27356;50.920;5.350;2023-10-13T15:01:12;10.02;;;3.40;;
41667;SDS011;27356;50.920;5.350;2023-10-13T15:06:14;14.88;;;3.97;;
41667;SDS011;27356;50.920;5.350;2023-10-13T15:08:44;7.97;;;3.40;;
41667;SDS011;27356;50.920;5.350;2023-10-13T15:11:11;8.85;;;3.35;;
41667;SDS011;27356;50.920;5.350;2023-10-13T15:13:38;9.13;;;3.53;;
41667;SDS011;27356;50.920;5.350;2023-10-13T15:16:14;7.10;;;3.72;;
41667;SDS011;27356;50.920;5.350;2023-10-13T15:18:42;11.18;;;3.13;;
41667;SDS011;27356;50.920;5.350;2023-10-13T15:21:12;6.15;;;3.10;;
41667;SDS011;27356;50.920;5.350;2023-10-13T15:23:48;7.63;;;3.45;;
41667;SDS011;27356;50.920;5.350;2023-10-13T15:26:16;8.68;;;3.60;;
41667;SDS011;27356;50.920;5.350;2023-10-13T15:28:42;9.55;;;3.28;;
41667;SDS011;27356;50.920;5.350;2023-10-13T15:31:16;14.20;;;3.63;;
41667;SDS011;27356;50.920;5.350;2023-10-13T15:33:51;9.75;;;3.08;;
41667;SDS011;27356;50.920;5.350;2023-10-13T15:36:22;12.40;;;3.72;;
41667;SDS011;27356;50.920;5.350;2023-10-13T15:38:48;7.30;;;3.25;;
41667;SDS011;27356;50.920;5.350;2023-10-13T15:41:27;8.10;;;3.40;;
41667;SDS011;27356;50.920;5.350;2023-10-13T15:43:53;6.18;;;3.40;;
41667;SDS011;27356;50.920;5.350;2023-10-13T15:46:20;7.18;;;3.40;;
41667;SDS011;27356;50.920;5.350;2023-10-13T15:48:47;9.30;;;3.40;;
41667;SDS011;27356;50.920;5.350;2023-10-13T15:51:13;5.68;;;2.90;;
41667;SDS011;27356;50.920;5.350;2023-10-13T15:53:39;10.23;;;3.78;;
41667;SDS011;27356;50.920;5.350;2023-10-13T15:56:06;10.30;;;3.72;;
41667;SDS011;27356;50.920;5.350;2023-10-13T15:58:40;13.38;;;3.40;;